createdAt,value
2018-07-30T00:02:04.642Z,101115.22
2018-07-30T00:07:06.827Z,101121.16
2018-07-30T00:12:08.960Z,101123.17
2018-07-30T00:17:11.169Z,101118.91
2018-07-30T00:22:13.324Z,101118.50
2018-07-30T00:27:15.470Z,101117.20
2018-07-30T00:32:17.787Z,101119.42
2018-07-30T00:37:19.930Z,101122.57
2018-07-30T00:42:22.084Z,101122.94
2018-07-30T00:47:24.210Z,101126.20
2018-07-30T00:52:26.337Z,101122.20
2018-07-30T00:57:28.481Z,101118.63
2018-07-30T01:02:30.676Z,101107.84
2018-07-30T01:07:32.883Z,101115.85
2018-07-30T01:12:35.023Z,101123.60
2018-07-30T01:17:37.190Z,101121.48
2018-07-30T01:22:39.348Z,101119.03
2018-07-30T01:27:41.479Z,101117.34
2018-07-30T01:32:43.624Z,101119.76
2018-07-30T01:37:45.777Z,101121.91
2018-07-30T01:42:47.955Z,101122.28
2018-07-30T01:47:50.112Z,101119.73
2018-07-30T01:52:52.253Z,101126.16
2018-07-30T01:57:54.421Z,101122.74
2018-07-30T02:02:56.560Z,101119.23
2018-07-30T02:07:58.651Z,101123.08
2018-07-30T02:13:00.735Z,101116.68
2018-07-30T02:18:02.928Z,101124.93
2018-07-30T02:23:05.119Z,101124.96
2018-07-30T02:28:07.282Z,101115.58
2018-07-30T02:33:09.403Z,101117.64
2018-07-30T02:38:11.590Z,101114.59
2018-07-30T02:43:13.773Z,101108.30
2018-07-30T02:48:15.919Z,101118.17
2018-07-30T02:53:18.139Z,101116.88
2018-07-30T02:58:20.277Z,101119.42
2018-07-30T03:03:22.373Z,101126.28
2018-07-30T03:08:24.517Z,101130.62
2018-07-30T03:13:26.684Z,101137.84
2018-07-30T03:18:28.840Z,101129.20
2018-07-30T03:23:30.976Z,101128.77
2018-07-30T03:28:33.108Z,101118.94
2018-07-30T03:33:42.222Z,101112.17
2018-07-30T03:38:44.628Z,101126.01
2018-07-30T03:43:46.802Z,101122.20
2018-07-30T03:48:48.977Z,101118.02
2018-07-30T03:53:51.090Z,101115.80
2018-07-30T03:58:53.279Z,101114.42
2018-07-30T04:03:55.527Z,101115.67
2018-07-30T04:08:57.636Z,101120.88
2018-07-30T04:13:59.759Z,101114.39
2018-07-30T04:19:01.954Z,101118.59
2018-07-30T04:24:04.100Z,101115.45
2018-07-30T04:29:06.432Z,101118.83
2018-07-30T04:34:08.611Z,101122.61
2018-07-30T04:39:12.326Z,101115.26
2018-07-30T04:44:14.467Z,101120.39
2018-07-30T04:49:16.679Z,101117.47
2018-07-30T04:54:18.779Z,101129.00
2018-07-30T04:59:20.914Z,101132.05
2018-07-30T05:04:23.048Z,101129.66
2018-07-30T05:09:25.203Z,101134.89
2018-07-30T05:14:27.349Z,101134.89
2018-07-30T05:19:29.615Z,101139.35
2018-07-30T05:24:31.683Z,101135.55
2018-07-30T05:29:33.923Z,101138.16
2018-07-30T05:34:36.082Z,101141.91
2018-07-30T05:39:38.389Z,101138.90
2018-07-30T05:44:40.543Z,101139.88
2018-07-30T05:49:42.686Z,101157.44
2018-07-30T05:54:44.893Z,101145.96
2018-07-30T05:59:47.049Z,101149.58
2018-07-30T06:04:49.228Z,101155.28
2018-07-30T06:09:51.383Z,101161.94
2018-07-30T06:14:53.578Z,101173.53
2018-07-30T06:19:55.765Z,101157.44
2018-07-30T06:24:57.941Z,101174.66
2018-07-30T06:30:00.121Z,101173.28
2018-07-30T06:35:02.315Z,101176.69
2018-07-30T06:40:04.665Z,101187.91
2018-07-30T06:45:06.882Z,101189.52
2018-07-30T06:50:09.031Z,101200.71
2018-07-30T06:55:11.455Z,101212.02
2018-07-30T07:00:13.911Z,101224.91
2018-07-30T07:05:16.135Z,101227.38
2018-07-30T07:10:18.355Z,101238.17
2018-07-30T07:15:20.557Z,101233.81
2018-07-30T07:20:22.751Z,101224.00
2018-07-30T07:25:24.927Z,101218.30
2018-07-30T07:30:27.836Z,101236.41
2018-07-30T07:35:30.021Z,101236.77
2018-07-30T07:40:32.179Z,101235.12
2018-07-30T07:45:34.574Z,101243.40
2018-07-30T07:50:36.800Z,101247.60
2018-07-30T07:55:38.951Z,101249.64
2018-07-30T08:00:41.169Z,101252.96
2018-07-30T08:05:43.680Z,101249.36
2018-07-30T08:10:45.920Z,101254.19
2018-07-30T08:15:49.069Z,101257.40
2018-07-30T08:20:51.300Z,101256.45
2018-07-30T08:25:53.523Z,101263.52
2018-07-30T08:30:55.711Z,101268.10
2018-07-30T08:35:57.929Z,101273.09
2018-07-30T08:41:00.124Z,101279.17
2018-07-30T08:46:02.299Z,101280.03
2018-07-30T08:51:04.429Z,101280.89
2018-07-30T08:56:06.669Z,101289.16
2018-07-30T09:01:09.776Z,101295.48
2018-07-30T09:06:11.927Z,101300.45
2018-07-30T09:11:14.132Z,101290.42
2018-07-30T09:16:16.376Z,101306.14
2018-07-30T09:21:18.564Z,101304.97
2018-07-30T09:26:20.745Z,101316.34
2018-07-30T09:31:22.946Z,101316.75
2018-07-30T09:36:25.989Z,101317.04
2018-07-30T09:41:28.176Z,101314.83
2018-07-30T09:46:30.794Z,101316.20
2018-07-30T09:51:32.994Z,101320.70
2018-07-30T09:56:35.369Z,101323.12
2018-07-30T10:01:37.640Z,101321.61
2018-07-30T10:06:39.786Z,101326.10
2018-07-30T10:11:42.037Z,101322.32
2018-07-30T10:16:45.192Z,101319.95
2018-07-30T10:21:47.443Z,101324.77
2018-07-30T10:26:49.632Z,101322.22
2018-07-30T10:31:51.842Z,101320.58
2018-07-30T10:36:54.047Z,101325.09
2018-07-30T10:41:56.307Z,101323.70
2018-07-30T10:46:58.496Z,101327.96
2018-07-30T10:52:00.666Z,101318.89
2018-07-30T10:57:02.897Z,101324.63
2018-07-30T11:02:05.149Z,101315.24
2018-07-30T11:07:07.448Z,101320.34
2018-07-30T11:12:09.696Z,101317.80
2018-07-30T11:17:11.863Z,101317.91
2018-07-30T11:22:14.105Z,101317.34
2018-07-30T11:27:16.940Z,101311.52
2018-07-30T11:32:19.236Z,101320.97
2018-07-30T11:37:21.428Z,101315.08
2018-07-30T11:42:23.780Z,101316.95
2018-07-30T11:47:25.972Z,101315.00
2018-07-30T11:52:28.215Z,101312.53
2018-07-30T11:57:30.690Z,101305.19
2018-07-30T12:02:32.930Z,101311.08
2018-07-30T12:07:35.134Z,101310.81
2018-07-30T12:12:37.302Z,101309.17
2018-07-30T12:17:39.487Z,101307.59
2018-07-30T12:22:41.709Z,101302.25
2018-07-30T12:27:43.923Z,101302.16
2018-07-30T12:32:46.126Z,101304.36
2018-07-30T12:37:48.300Z,101304.03
2018-07-30T12:42:50.487Z,101305.04
2018-07-30T12:47:52.659Z,101309.75
2018-07-30T12:52:54.837Z,101310.36
2018-07-30T12:57:57.051Z,101310.67
2018-07-30T13:03:06.206Z,101303.56
2018-07-30T13:08:08.440Z,101310.88
2018-07-30T13:13:10.643Z,101299.75
2018-07-30T13:18:13.033Z,101299.16
2018-07-30T13:23:15.306Z,101292.86
2018-07-30T13:28:17.648Z,101290.68
2018-07-30T13:33:19.841Z,101286.73
2018-07-30T13:38:22.026Z,101282.42
2018-07-30T13:43:24.202Z,101289.73
2018-07-30T13:48:26.347Z,101287.77
2018-07-30T13:53:28.532Z,101283.70
2018-07-30T13:58:30.702Z,101283.32
2018-07-30T14:03:32.951Z,101278.58
2018-07-30T14:08:35.191Z,101278.63
2018-07-30T14:13:37.430Z,101283.09
2018-07-30T14:18:39.669Z,101284.33
2018-07-30T14:23:41.886Z,101273.48
2018-07-30T14:28:44.031Z,101269.31
2018-07-30T14:33:46.193Z,101269.43
2018-07-30T14:38:48.359Z,101259.91
2018-07-30T14:43:50.547Z,101255.48
2018-07-30T14:48:52.770Z,101252.24
2018-07-30T14:53:54.909Z,101246.77
2018-07-30T14:58:57.074Z,101248.41
2018-07-30T15:03:59.214Z,101252.73
2018-07-30T15:09:01.368Z,101247.52
2018-07-30T15:14:03.684Z,101245.57
2018-07-30T15:19:06.663Z,101253.13
2018-07-30T15:24:08.848Z,101246.73
2018-07-30T15:29:11.019Z,101244.70
2018-07-30T15:34:13.156Z,101243.69
2018-07-30T15:39:15.338Z,101253.38
2018-07-30T15:44:17.490Z,101246.06
2018-07-30T15:49:19.692Z,101247.52
2018-07-30T15:54:21.862Z,101242.11
2018-07-30T15:59:24.026Z,101239.13
2018-07-30T16:04:26.216Z,101231.57
2018-07-30T16:09:28.479Z,101229.86
2018-07-30T16:14:30.670Z,101237.64
2018-07-30T16:19:32.865Z,101238.64
2018-07-30T16:24:35.090Z,101229.02
2018-07-30T16:29:37.274Z,101227.98
2018-07-30T16:34:39.449Z,101229.68
2018-07-30T16:39:41.636Z,101224.16
2018-07-30T16:44:43.866Z,101232.49
2018-07-30T16:49:46.003Z,101231.86
2018-07-30T16:54:48.178Z,101232.64
2018-07-30T16:59:50.346Z,101235.70
2018-07-30T17:04:52.517Z,101236.79
2018-07-30T17:09:54.704Z,101238.59
2018-07-30T17:14:56.874Z,101242.85
2018-07-30T17:19:59.051Z,101251.17
2018-07-30T17:25:01.254Z,101255.89
2018-07-30T17:30:04.208Z,101255.06
2018-07-30T17:35:06.668Z,101256.15
2018-07-30T17:40:09.469Z,101263.05
2018-07-30T17:45:12.863Z,101269.30
2018-07-30T17:50:15.035Z,101257.89
2018-07-30T17:55:17.212Z,101261.70
2018-07-30T18:00:19.392Z,101261.09
2018-07-30T18:05:21.555Z,101261.04
2018-07-30T18:10:23.754Z,101260.78
2018-07-30T18:15:25.958Z,101261.91
2018-07-30T18:20:28.167Z,101262.30
2018-07-30T18:25:30.455Z,101265.44
2018-07-30T18:30:32.714Z,101273.31
2018-07-30T18:35:34.822Z,101279.23
2018-07-30T18:40:36.992Z,101277.44
2018-07-30T18:45:39.147Z,101279.05
2018-07-30T18:50:41.329Z,101288.58
2018-07-30T18:55:43.532Z,101281.66
2018-07-30T19:00:45.727Z,101289.12
2018-07-30T19:05:47.947Z,101288.01
2018-07-30T19:10:50.153Z,101290.89
2018-07-30T19:15:52.366Z,101302.20
2018-07-30T19:20:54.495Z,101299.11
2018-07-30T19:25:56.719Z,101302.08
2018-07-30T19:30:58.941Z,101305.64
2018-07-30T19:36:01.193Z,101303.11
2018-07-30T19:41:03.451Z,101316.06
2018-07-30T19:46:05.647Z,101308.48
2018-07-30T19:51:07.838Z,101320.27
2018-07-30T19:56:10.040Z,101310.75
2018-07-30T20:01:12.218Z,101307.96
2018-07-30T20:06:14.367Z,101318.63
2018-07-30T20:11:16.560Z,101322.14
2018-07-30T20:16:19.211Z,101326.80
2018-07-30T20:21:21.467Z,101324.59
2018-07-30T20:26:23.666Z,101323.67
2018-07-30T20:31:26.758Z,101325.41
2018-07-30T20:36:28.935Z,101324.53
2018-07-30T20:41:31.090Z,101323.62
2018-07-30T20:46:33.329Z,101327.52
2018-07-30T20:51:35.503Z,101328.09
2018-07-30T20:56:37.687Z,101327.80
2018-07-30T21:01:39.917Z,101321.75
2018-07-30T21:06:42.310Z,101316.28
2018-07-30T21:11:44.507Z,101325.73
2018-07-30T21:16:47.032Z,101319.16
2018-07-30T21:21:49.235Z,101323.05
2018-07-30T21:26:51.418Z,101323.00
2018-07-30T21:31:53.580Z,101317.38
2018-07-30T21:36:55.732Z,101310.03
2018-07-30T21:41:57.913Z,101308.34
2018-07-30T21:47:00.065Z,101313.11
2018-07-30T21:52:02.223Z,101302.73
2018-07-30T21:57:04.609Z,101307.97
2018-07-30T22:02:06.795Z,101317.53
2018-07-30T22:07:08.978Z,101310.41
2018-07-30T22:12:11.199Z,101309.63
2018-07-30T22:17:13.339Z,101307.05
2018-07-30T22:22:15.516Z,101302.47
2018-07-30T22:27:17.704Z,101309.65
2018-07-30T22:32:19.941Z,101313.53
2018-07-30T22:37:22.100Z,101308.08
2018-07-30T22:42:24.247Z,101310.98
2018-07-30T22:47:26.406Z,101304.89
2018-07-30T22:52:28.622Z,101303.69
2018-07-30T22:57:31.297Z,101302.42
2018-07-30T23:02:33.434Z,101302.26
2018-07-30T23:07:35.783Z,101297.08
2018-07-30T23:12:37.950Z,101298.72
2018-07-30T23:17:40.105Z,101289.70
2018-07-30T23:22:42.295Z,101289.73
2018-07-30T23:27:44.504Z,101288.02
2018-07-30T23:32:46.654Z,101289.39
2018-07-30T23:37:48.826Z,101282.61
2018-07-30T23:42:50.990Z,101278.02
2018-07-30T23:47:53.175Z,101274.06
2018-07-30T23:52:56.274Z,101276.42
2018-07-30T23:57:58.412Z,101272.11
